Patsville, Arkansas
Current Conditions -  °F | °C
As of 11:46 AM on Monday 22 Dec 2014 (Local Time) from KLLQ Reporting Station
Overcast Overcast  
Wind Chill: 56°   Ceiling: 6000
Heat Index: 56°   Visibility: 10mi
Dew Point: 52°   Wind: 9mph
Humidity: 87%   Direction: 150°SSE
Pressure: 29.68"   Gusts: NA
Location:  33.37°N, 92.1129°W
Report Text: KLLQ 221746Z AUTO 15008KT 10SM SCT008 OVC060 13/11 A2968 RMK AO2 T01330111
Loading
Personal Weather Stations






























Interactive Weather Map New forecast layout! Learn more

10-Day Weather Forecast

Advertisements
Track Severe Weather on mobile